sensor_id;sensor_type;location;lat;lon;timestamp;temperature;humidity
4820;DHT22;2424;49.696;6.630;2022-08-21T00:04:47;18.10;99.90
4820;DHT22;2424;49.696;6.630;2022-08-21T00:10:11;18.00;99.90
4820;DHT22;2424;49.696;6.630;2022-08-21T00:15:36;17.90;99.90
4820;DHT22;2424;49.696;6.630;2022-08-21T00:20:58;17.80;99.90
4820;DHT22;2424;49.696;6.630;2022-08-21T00:26:22;17.70;99.90
4820;DHT22;2424;49.696;6.630;2022-08-21T00:31:44;17.70;99.90
4820;DHT22;2424;49.696;6.630;2022-08-21T00:37:06;17.50;99.90
4820;DHT22;2424;49.696;6.630;2022-08-21T00:42:30;17.50;99.90
4820;DHT22;2424;49.696;6.630;2022-08-21T00:47:52;17.40;99.90
4820;DHT22;2424;49.696;6.630;2022-08-21T00:53:16;17.30;99.90
4820;DHT22;2424;49.696;6.630;2022-08-21T00:58:41;17.20;99.90
4820;DHT22;2424;49.696;6.630;2022-08-21T01:04:04;17.20;99.90
4820;DHT22;2424;49.696;6.630;2022-08-21T01:09:27;17.10;99.90
4820;DHT22;2424;49.696;6.630;2022-08-21T01:14:50;16.90;99.90
4820;DHT22;2424;49.696;6.630;2022-08-21T01:20:12;16.80;99.90
4820;DHT22;2424;49.696;6.630;2022-08-21T01:25:36;16.80;99.90
4820;DHT22;2424;49.696;6.630;2022-08-21T01:30:58;16.70;99.90
4820;DHT22;2424;49.696;6.630;2022-08-21T01:36:22;16.60;99.90
4820;DHT22;2424;49.696;6.630;2022-08-21T01:41:46;16.60;99.90
4820;DHT22;2424;49.696;6.630;2022-08-21T01:47:11;16.50;99.90
4820;DHT22;2424;49.696;6.630;2022-08-21T01:52:33;16.40;99.90
4820;DHT22;2424;49.696;6.630;2022-08-21T01:57:57;16.30;99.90
4820;DHT22;2424;49.696;6.630;2022-08-21T02:03:20;16.30;99.90
4820;DHT22;2424;49.696;6.630;2022-08-21T02:08:42;16.20;99.90
4820;DHT22;2424;49.696;6.630;2022-08-21T02:14:06;16.10;99.90
4820;DHT22;2424;49.696;6.630;2022-08-21T02:19:28;16.00;99.90
4820;DHT22;2424;49.696;6.630;2022-08-21T02:24:50;15.90;99.90
4820;DHT22;2424;49.696;6.630;2022-08-21T02:30:15;15.80;99.90
4820;DHT22;2424;49.696;6.630;2022-08-21T02:35:38;15.80;99.90
4820;DHT22;2424;49.696;6.630;2022-08-21T02:41:02;15.70;99.90
4820;DHT22;2424;49.696;6.630;2022-08-21T02:46:26;15.60;99.90
4820;DHT22;2424;49.696;6.630;2022-08-21T02:51:48;15.60;99.90
4820;DHT22;2424;49.696;6.630;2022-08-21T02:57:10;15.60;99.90
4820;DHT22;2424;49.696;6.630;2022-08-21T03:02:33;15.40;99.90
4820;DHT22;2424;49.696;6.630;2022-08-21T03:07:55;15.40;99.90
4820;DHT22;2424;49.696;6.630;2022-08-21T03:13:20;15.30;99.90
4820;DHT22;2424;49.696;6.630;2022-08-21T03:18:43;15.20;99.90
4820;DHT22;2424;49.696;6.630;2022-08-21T03:24:05;15.20;99.90
4820;DHT22;2424;49.696;6.630;2022-08-21T03:29:29;15.10;99.90
4820;DHT22;2424;49.696;6.630;2022-08-21T03:34:53;15.10;99.90
4820;DHT22;2424;49.696;6.630;2022-08-21T03:40:17;15.10;99.90
4820;DHT22;2424;49.696;6.630;2022-08-21T03:45:39;15.00;99.90
4820;DHT22;2424;49.696;6.630;2022-08-21T03:51:03;14.90;99.90
4820;DHT22;2424;49.696;6.630;2022-08-21T03:56:25;14.90;99.90
4820;DHT22;2424;49.696;6.630;2022-08-21T04:01:52;14.90;99.90
4820;DHT22;2424;49.696;6.630;2022-08-21T04:07:16;14.80;99.90
4820;DHT22;2424;49.696;6.630;2022-08-21T04:12:38;14.70;99.90
4820;DHT22;2424;49.696;6.630;2022-08-21T04:18:00;14.70;99.90
4820;DHT22;2424;49.696;6.630;2022-08-21T04:23:24;14.60;99.90
4820;DHT22;2424;49.696;6.630;2022-08-21T04:28:46;14.60;99.90
4820;DHT22;2424;49.696;6.630;2022-08-21T04:34:08;14.60;99.90
4820;DHT22;2424;49.696;6.630;2022-08-21T04:39:32;14.50;99.90
4820;DHT22;2424;49.696;6.630;2022-08-21T04:44:54;14.60;99.90
4820;DHT22;2424;49.696;6.630;2022-08-21T04:50:17;14.50;99.90
4820;DHT22;2424;49.696;6.630;2022-08-21T04:55:41;14.30;99.90
4820;DHT22;2424;49.696;6.630;2022-08-21T05:01:05;14.40;99.90
4820;DHT22;2424;49.696;6.630;2022-08-21T05:06:29;14.40;99.90
4820;DHT22;2424;49.696;6.630;2022-08-21T05:11:54;14.40;99.90
4820;DHT22;2424;49.696;6.630;2022-08-21T05:17:16;14.40;99.90
4820;DHT22;2424;49.696;6.630;2022-08-21T05:22:39;14.40;99.90
4820;DHT22;2424;49.696;6.630;2022-08-21T05:28:02;14.50;99.90
4820;DHT22;2424;49.696;6.630;2022-08-21T05:33:24;14.50;99.90
4820;DHT22;2424;49.696;6.630;2022-08-21T05:38:46;14.50;99.90
4820;DHT22;2424;49.696;6.630;2022-08-21T05:44:10;14.50;99.90
4820;DHT22;2424;49.696;6.630;2022-08-21T05:49:32;14.60;99.90
4820;DHT22;2424;49.696;6.630;2022-08-21T05:54:54;14.60;99.90
4820;DHT22;2424;49.696;6.630;2022-08-21T06:00:18;14.70;99.90
4820;DHT22;2424;49.696;6.630;2022-08-21T06:05:40;14.70;99.90
4820;DHT22;2424;49.696;6.630;2022-08-21T06:11:03;14.70;99.90
4820;DHT22;2424;49.696;6.630;2022-08-21T06:16:28;14.80;99.90
4820;DHT22;2424;49.696;6.630;2022-08-21T06:21:50;14.90;99.90
4820;DHT22;2424;49.696;6.630;2022-08-21T06:27:12;15.00;99.90
4820;DHT22;2424;49.696;6.630;2022-08-21T06:32:37;15.10;99.90
4820;DHT22;2424;49.696;6.630;2022-08-21T06:37:59;15.00;99.90
4820;DHT22;2424;49.696;6.630;2022-08-21T06:43:21;15.00;99.90
4820;DHT22;2424;49.696;6.630;2022-08-21T06:48:44;15.00;99.90
4820;DHT22;2424;49.696;6.630;2022-08-21T06:54:07;15.20;99.90
4820;DHT22;2424;49.696;6.630;2022-08-21T06:59:29;15.40;99.90
4820;DHT22;2424;49.696;6.630;2022-08-21T07:04:52;15.60;99.90
4820;DHT22;2424;49.696;6.630;2022-08-21T07:10:14;15.70;99.90
4820;DHT22;2424;49.696;6.630;2022-08-21T07:15:36;15.90;99.90
4820;DHT22;2424;49.696;6.630;2022-08-21T07:21:02;16.00;99.90
4820;DHT22;2424;49.696;6.630;2022-08-21T07:26:25;16.10;99.90
4820;DHT22;2424;49.696;6.630;2022-08-21T07:31:47;16.20;99.90
4820;DHT22;2424;49.696;6.630;2022-08-21T07:37:10;16.40;99.90
4820;DHT22;2424;49.696;6.630;2022-08-21T07:42:32;16.60;99.90
4820;DHT22;2424;49.696;6.630;2022-08-21T07:47:55;16.80;99.90
4820;DHT22;2424;49.696;6.630;2022-08-21T07:53:18;17.00;99.90
4820;DHT22;2424;49.696;6.630;2022-08-21T07:58:40;17.30;99.90
4820;DHT22;2424;49.696;6.630;2022-08-21T08:04:03;17.50;99.90
4820;DHT22;2424;49.696;6.630;2022-08-21T08:09:26;17.80;99.90
4820;DHT22;2424;49.696;6.630;2022-08-21T08:14:48;18.00;99.90
4820;DHT22;2424;49.696;6.630;2022-08-21T08:20:12;18.20;99.90
4820;DHT22;2424;49.696;6.630;2022-08-21T08:25:36;18.50;99.90
4820;DHT22;2424;49.696;6.630;2022-08-21T08:30:58;18.70;99.90
4820;DHT22;2424;49.696;6.630;2022-08-21T08:36:31;18.90;99.90
4820;DHT22;2424;49.696;6.630;2022-08-21T08:41:59;19.20;99.90
4820;DHT22;2424;49.696;6.630;2022-08-21T08:47:25;19.40;99.90
4820;DHT22;2424;49.696;6.630;2022-08-21T08:52:53;19.80;99.90
4820;DHT22;2424;49.696;6.630;2022-08-21T08:58:23;19.90;99.90
4820;DHT22;2424;49.696;6.630;2022-08-21T09:03:46;20.20;99.90
4820;DHT22;2424;49.696;6.630;2022-08-21T09:09:22;20.30;99.90
4820;DHT22;2424;49.696;6.630;2022-08-21T09:14:57;20.50;99.90
4820;DHT22;2424;49.696;6.630;2022-08-21T09:20:26;20.50;99.90
4820;DHT22;2424;49.696;6.630;2022-08-21T09:25:59;20.70;99.90
4820;DHT22;2424;49.696;6.630;2022-08-21T09:31:25;21.10;99.90
4820;DHT22;2424;49.696;6.630;2022-08-21T09:36:49;21.20;99.90
4820;DHT22;2424;49.696;6.630;2022-08-21T09:42:22;21.40;99.90
4820;DHT22;2424;49.696;6.630;2022-08-21T09:47:45;21.50;99.90
4820;DHT22;2424;49.696;6.630;2022-08-21T09:53:16;21.40;99.90
4820;DHT22;2424;49.696;6.630;2022-08-21T09:58:41;21.90;99.90
4820;DHT22;2424;49.696;6.630;2022-08-21T10:04:07;22.20;99.90
4820;DHT22;2424;49.696;6.630;2022-08-21T10:09:29;22.20;99.90
4820;DHT22;2424;49.696;6.630;2022-08-21T10:14:59;22.10;99.90
4820;DHT22;2424;49.696;6.630;2022-08-21T10:20:27;22.20;99.90
4820;DHT22;2424;49.696;6.630;2022-08-21T10:25:55;22.20;99.90
4820;DHT22;2424;49.696;6.630;2022-08-21T10:31:23;22.20;99.90
4820;DHT22;2424;49.696;6.630;2022-08-21T10:37:02;22.20;99.90
4820;DHT22;2424;49.696;6.630;2022-08-21T10:42:32;22.60;99.90
4820;DHT22;2424;49.696;6.630;2022-08-21T10:47:59;22.90;99.90
4820;DHT22;2424;49.696;6.630;2022-08-21T10:53:42;22.90;99.90
4820;DHT22;2424;49.696;6.630;2022-08-21T10:59:23;23.10;99.90
4820;DHT22;2424;49.696;6.630;2022-08-21T11:04:52;23.10;99.90
4820;DHT22;2424;49.696;6.630;2022-08-21T11:10:21;23.40;99.90
4820;DHT22;2424;49.696;6.630;2022-08-21T11:15:50;23.40;99.90
4820;DHT22;2424;49.696;6.630;2022-08-21T11:21:35;23.60;99.90
4820;DHT22;2424;49.696;6.630;2022-08-21T11:27:08;23.90;99.90
4820;DHT22;2424;49.696;6.630;2022-08-21T11:32:46;23.80;99.90
4820;DHT22;2424;49.696;6.630;2022-08-21T11:38:22;23.90;99.90
4820;DHT22;2424;49.696;6.630;2022-08-21T11:43:53;23.80;99.90
4820;DHT22;2424;49.696;6.630;2022-08-21T11:49:30;23.90;99.90
4820;DHT22;2424;49.696;6.630;2022-08-21T11:54:59;24.20;99.40
4820;DHT22;2424;49.696;6.630;2022-08-21T12:00:27;24.60;99.00
4820;DHT22;2424;49.696;6.630;2022-08-21T12:05:53;24.70;98.40
4820;DHT22;2424;49.696;6.630;2022-08-21T12:11:23;24.80;98.20
4820;DHT22;2424;49.696;6.630;2022-08-21T12:16:49;25.10;98.20
4820;DHT22;2424;49.696;6.630;2022-08-21T12:22:14;25.10;97.60
4820;DHT22;2424;49.696;6.630;2022-08-21T12:27:46;25.10;97.70
4820;DHT22;2424;49.696;6.630;2022-08-21T12:33:22;25.30;97.50
4820;DHT22;2424;49.696;6.630;2022-08-21T12:38:48;25.50;95.90
4820;DHT22;2424;49.696;6.630;2022-08-21T12:44:14;25.70;96.40
4820;DHT22;2424;49.696;6.630;2022-08-21T12:49:47;26.00;96.80
4820;DHT22;2424;49.696;6.630;2022-08-21T12:55:14;26.30;95.70
4820;DHT22;2424;49.696;6.630;2022-08-21T13:00:36;26.10;95.10
4820;DHT22;2424;49.696;6.630;2022-08-21T13:06:00;26.10;95.20
4820;DHT22;2424;49.696;6.630;2022-08-21T13:11:24;25.90;94.70
4820;DHT22;2424;49.696;6.630;2022-08-21T13:16:47;26.10;94.20
4820;DHT22;2424;49.696;6.630;2022-08-21T13:22:14;26.20;94.20
4820;DHT22;2424;49.696;6.630;2022-08-21T13:27:36;26.60;94.40
4820;DHT22;2424;49.696;6.630;2022-08-21T13:33:01;26.60;94.10
4820;DHT22;2424;49.696;6.630;2022-08-21T13:38:27;26.40;93.10
4820;DHT22;2424;49.696;6.630;2022-08-21T13:43:59;26.60;93.10
4820;DHT22;2424;49.696;6.630;2022-08-21T13:49:26;26.70;92.40
4820;DHT22;2424;49.696;6.630;2022-08-21T13:54:56;27.00;92.40
4820;DHT22;2424;49.696;6.630;2022-08-21T14:00:24;26.80;92.00
4820;DHT22;2424;49.696;6.630;2022-08-21T14:05:46;27.20;92.00
4820;DHT22;2424;49.696;6.630;2022-08-21T14:11:12;27.30;90.60
4820;DHT22;2424;49.696;6.630;2022-08-21T14:16:43;27.40;89.60
4820;DHT22;2424;49.696;6.630;2022-08-21T14:22:29;27.60;87.90
4820;DHT22;2424;49.696;6.630;2022-08-21T14:27:55;27.70;88.90
4820;DHT22;2424;49.696;6.630;2022-08-21T14:33:25;28.00;86.60
4820;DHT22;2424;49.696;6.630;2022-08-21T14:38:47;27.90;84.80
4820;DHT22;2424;49.696;6.630;2022-08-21T14:44:10;27.80;85.50
4820;DHT22;2424;49.696;6.630;2022-08-21T14:49:32;28.00;84.80
4820;DHT22;2424;49.696;6.630;2022-08-21T14:54:54;27.70;81.20
4820;DHT22;2424;49.696;6.630;2022-08-21T15:00:20;27.70;79.10
4820;DHT22;2424;49.696;6.630;2022-08-21T15:05:43;27.90;81.90
4820;DHT22;2424;49.696;6.630;2022-08-21T15:11:06;28.30;83.70
4820;DHT22;2424;49.696;6.630;2022-08-21T15:16:30;28.00;81.70
4820;DHT22;2424;49.696;6.630;2022-08-21T15:21:52;27.30;81.50
4820;DHT22;2424;49.696;6.630;2022-08-21T15:27:15;27.20;83.00
4820;DHT22;2424;49.696;6.630;2022-08-21T15:32:39;26.80;81.90
4820;DHT22;2424;49.696;6.630;2022-08-21T15:38:02;26.70;81.80
4820;DHT22;2424;49.696;6.630;2022-08-21T15:43:26;26.70;82.30
4820;DHT22;2424;49.696;6.630;2022-08-21T15:48:50;26.70;82.50
4820;DHT22;2424;49.696;6.630;2022-08-21T15:54:12;26.70;83.50
4820;DHT22;2424;49.696;6.630;2022-08-21T15:59:39;26.70;83.30
4820;DHT22;2424;49.696;6.630;2022-08-21T16:05:03;26.50;82.40
4820;DHT22;2424;49.696;6.630;2022-08-21T16:10:26;26.50;83.40
4820;DHT22;2424;49.696;6.630;2022-08-21T16:15:48;26.40;83.60
4820;DHT22;2424;49.696;6.630;2022-08-21T16:21:11;26.40;84.60
4820;DHT22;2424;49.696;6.630;2022-08-21T16:26:33;26.30;84.60
4820;DHT22;2424;49.696;6.630;2022-08-21T16:31:55;26.20;83.80
4820;DHT22;2424;49.696;6.630;2022-08-21T16:37:19;26.30;85.60
4820;DHT22;2424;49.696;6.630;2022-08-21T16:42:42;26.20;85.10
4820;DHT22;2424;49.696;6.630;2022-08-21T16:48:05;26.20;84.90
4820;DHT22;2424;49.696;6.630;2022-08-21T16:53:30;26.30;85.30
4820;DHT22;2424;49.696;6.630;2022-08-21T16:58:54;26.30;86.00
4820;DHT22;2424;49.696;6.630;2022-08-21T17:04:18;26.40;85.50
4820;DHT22;2424;49.696;6.630;2022-08-21T17:09:42;26.20;85.50
4820;DHT22;2424;49.696;6.630;2022-08-21T17:15:07;26.10;85.10
4820;DHT22;2424;49.696;6.630;2022-08-21T17:20:30;25.90;84.80
4820;DHT22;2424;49.696;6.630;2022-08-21T17:25:54;25.90;86.30
4820;DHT22;2424;49.696;6.630;2022-08-21T17:31:16;26.10;85.60
4820;DHT22;2424;49.696;6.630;2022-08-21T17:36:38;26.10;85.30
4820;DHT22;2424;49.696;6.630;2022-08-21T17:42:04;25.90;85.20
4820;DHT22;2424;49.696;6.630;2022-08-21T17:47:27;25.80;86.10
4820;DHT22;2424;49.696;6.630;2022-08-21T17:52:49;25.70;87.00
4820;DHT22;2424;49.696;6.630;2022-08-21T17:58:13;25.60;87.70
4820;DHT22;2424;49.696;6.630;2022-08-21T18:03:36;25.40;88.70
4820;DHT22;2424;49.696;6.630;2022-08-21T18:08:58;25.30;88.90
4820;DHT22;2424;49.696;6.630;2022-08-21T18:14:25;25.10;90.50
4820;DHT22;2424;49.696;6.630;2022-08-21T18:19:48;24.80;91.10
4820;DHT22;2424;49.696;6.630;2022-08-21T18:25:12;24.70;91.40
4820;DHT22;2424;49.696;6.630;2022-08-21T18:30:39;24.50;91.30
4820;DHT22;2424;49.696;6.630;2022-08-21T18:36:02;24.30;91.30
4820;DHT22;2424;49.696;6.630;2022-08-21T18:41:24;24.10;91.60
4820;DHT22;2424;49.696;6.630;2022-08-21T18:46:53;23.90;91.80
4820;DHT22;2424;49.696;6.630;2022-08-21T18:52:15;23.80;92.60
4820;DHT22;2424;49.696;6.630;2022-08-21T18:57:38;23.70;92.70
4820;DHT22;2424;49.696;6.630;2022-08-21T19:03:02;23.60;93.00
4820;DHT22;2424;49.696;6.630;2022-08-21T19:08:24;23.50;93.60
4820;DHT22;2424;49.696;6.630;2022-08-21T19:13:48;23.40;93.50
4820;DHT22;2424;49.696;6.630;2022-08-21T19:19:14;23.30;93.70
4820;DHT22;2424;49.696;6.630;2022-08-21T19:24:37;23.30;93.90
4820;DHT22;2424;49.696;6.630;2022-08-21T19:30:00;23.20;94.20
4820;DHT22;2424;49.696;6.630;2022-08-21T19:35:24;23.10;94.80
4820;DHT22;2424;49.696;6.630;2022-08-21T19:40:46;22.90;94.80
4820;DHT22;2424;49.696;6.630;2022-08-21T19:46:08;22.80;94.90
4820;DHT22;2424;49.696;6.630;2022-08-21T19:51:32;23.00;95.20
4820;DHT22;2424;49.696;6.630;2022-08-21T19:56:56;22.90;95.10
4820;DHT22;2424;49.696;6.630;2022-08-21T20:02:19;22.90;95.40
4820;DHT22;2424;49.696;6.630;2022-08-21T20:07:42;22.90;95.50
4820;DHT22;2424;49.696;6.630;2022-08-21T20:13:05;22.90;95.80
4820;DHT22;2424;49.696;6.630;2022-08-21T20:18:27;22.80;95.80
4820;DHT22;2424;49.696;6.630;2022-08-21T20:23:51;22.80;96.10
4820;DHT22;2424;49.696;6.630;2022-08-21T20:29:13;22.70;96.20
4820;DHT22;2424;49.696;6.630;2022-08-21T20:34:35;22.70;96.40
4820;DHT22;2424;49.696;6.630;2022-08-21T20:39:59;22.60;96.50
4820;DHT22;2424;49.696;6.630;2022-08-21T20:45:24;22.50;96.80
4820;DHT22;2424;49.696;6.630;2022-08-21T20:50:51;22.50;97.00
4820;DHT22;2424;49.696;6.630;2022-08-21T20:56:19;22.50;97.20
4820;DHT22;2424;49.696;6.630;2022-08-21T21:01:51;22.40;97.20
4820;DHT22;2424;49.696;6.630;2022-08-21T21:07:20;22.40;97.50
4820;DHT22;2424;49.696;6.630;2022-08-21T21:12:47;22.30;97.60
4820;DHT22;2424;49.696;6.630;2022-08-21T21:18:15;22.30;97.60
4820;DHT22;2424;49.696;6.630;2022-08-21T21:23:46;22.20;97.90
4820;DHT22;2424;49.696;6.630;2022-08-21T21:29:13;22.10;97.90
4820;DHT22;2424;49.696;6.630;2022-08-21T21:34:40;22.00;98.10
4820;DHT22;2424;49.696;6.630;2022-08-21T21:40:20;21.90;98.20
4820;DHT22;2424;49.696;6.630;2022-08-21T21:46:00;21.90;98.30
4820;DHT22;2424;49.696;6.630;2022-08-21T21:51:36;21.80;98.30
4820;DHT22;2424;49.696;6.630;2022-08-21T21:57:11;21.70;98.40
4820;DHT22;2424;49.696;6.630;2022-08-21T22:02:47;21.60;98.30
4820;DHT22;2424;49.696;6.630;2022-08-21T22:08:18;21.60;98.50
4820;DHT22;2424;49.696;6.630;2022-08-21T22:13:47;21.60;98.50
4820;DHT22;2424;49.696;6.630;2022-08-21T22:19:18;21.40;98.60
4820;DHT22;2424;49.696;6.630;2022-08-21T22:24:44;21.40;98.80
4820;DHT22;2424;49.696;6.630;2022-08-21T22:30:13;21.40;98.90
4820;DHT22;2424;49.696;6.630;2022-08-21T22:35:37;21.30;99.00
4820;DHT22;2424;49.696;6.630;2022-08-21T22:41:12;21.30;99.20
4820;DHT22;2424;49.696;6.630;2022-08-21T22:46:42;21.20;99.40
4820;DHT22;2424;49.696;6.630;2022-08-21T22:52:10;21.20;99.50
4820;DHT22;2424;49.696;6.630;2022-08-21T22:57:34;21.20;99.70
4820;DHT22;2424;49.696;6.630;2022-08-21T23:02:58;21.10;99.90
4820;DHT22;2424;49.696;6.630;2022-08-21T23:08:25;21.10;99.90
4820;DHT22;2424;49.696;6.630;2022-08-21T23:13:49;21.10;99.90
4820;DHT22;2424;49.696;6.630;2022-08-21T23:19:15;21.00;99.90
4820;DHT22;2424;49.696;6.630;2022-08-21T23:24:59;21.00;99.90
4820;DHT22;2424;49.696;6.630;2022-08-21T23:30:31;20.90;99.90
4820;DHT22;2424;49.696;6.630;2022-08-21T23:36:08;20.90;99.90
4820;DHT22;2424;49.696;6.630;2022-08-21T23:41:55;20.80;99.90
4820;DHT22;2424;49.696;6.630;2022-08-21T23:47:30;20.60;99.90
4820;DHT22;2424;49.696;6.630;2022-08-21T23:53:09;20.50;99.90
4820;DHT22;2424;49.696;6.630;2022-08-21T23:58:40;20.50;99.90
